Latest Weather Observations for Hogan Island

IDT60801

Issued at 11:35 pm EST Thursday 18 September 2014 (issued every 30 minutes, with the page automatically refreshed every 10 minutes)

About weather observations | Map of weather stations | Latest weather observations for TAS | Other Formats
Station Details ID: 200838 Name: HOGAN ISLAND Lat: -39.22 Lon: 146.98 Height: 116.0 m
Data from the previous 72 hours. | See also: Recent months at Hogan Island
Date/Time
EST
Temp
°C
App
Temp
°C
Dew
Point
Rel
Hum
%
Delta-T
°C
Wind Press
QNH
hPa
Press
MSL
hPa
Rain
since 9 am
mm
Dir
 
Spd
km/h
Gust
km/h
Spd
kts
Gust
kts
18/11:30pm 10.9 -0.7 5.9 71 2.3 W 56 65 30 35 1020.4 - 0.0
18/11:00pm 10.7 -1.3 5.0 68 2.6 WSW 57 69 31 37 1020.4 - 0.0
18/10:30pm 10.8 -1.6 4.9 67 2.7 WSW 59 70 32 38 1020.8 - 0.0
18/10:00pm 10.9 -1.1 4.6 65 2.9 WSW 57 69 31 37 1020.8 - 0.0
18/09:30pm 10.6 -1.5 4.1 64 2.9 WSW 57 70 31 38 1020.9 - 0.0
18/09:00pm 10.5 -2.0 4.2 65 2.8 WSW 59 72 32 39 1020.7 1020.8 0.0
18/08:30pm 10.5 -2.0 4.2 65 2.8 W 59 67 32 36 1020.5 - 0.0
18/08:00pm 10.6 -2.8 5.4 70 2.4 WSW 65 76 35 41 1020.1 - 0.0
18/07:30pm 10.6 -1.6 5.4 70 2.4 W 59 70 32 38 1019.9 - 0.0
18/07:00pm 10.6 -1.9 4.3 65 2.8 WSW 59 72 32 39 1019.6 - 0.0
18/06:30pm 10.4 -2.9 3.9 64 2.9 WSW 63 74 34 40 1019.5 - 0.0
18/06:00pm 10.5 -3.0 5.1 69 2.5 W 65 76 35 41 1019.3 1019.5 0.0
18/05:30pm 10.9 -2.4 5.7 70 2.4 WSW 65 76 35 41 1019.1 - 0.0
18/05:00pm 11.3 -1.9 6.4 72 2.3 WSW 65 72 35 39 1018.6 - 0.0
18/04:30pm 11.9 -0.8 7.0 72 2.4 WSW 63 76 34 41 1018.6 - 0.0
18/04:00pm 11.6 -1.6 6.1 69 2.6 WSW 65 74 35 40 1018.4 - 0.0
18/03:30pm 12.4 0.0 6.5 67 2.8 WSW 61 72 33 39 1018.2 - 0.0
18/03:00pm 11.9 -0.6 5.8 66 2.9 WSW 61 70 33 38 1018.3 1018.5 0.0
18/02:30pm 11.7 -0.7 4.4 61 3.3 WSW 59 67 32 36 1018.4 - 0.0
18/02:00pm 12.8 1.1 5.5 61 3.4 WSW 56 61 30 33 1018.2 - 0.0
18/01:30pm 12.4 0.3 4.1 57 3.8 WSW 57 65 31 35 1018.4 - 0.0
18/01:00pm 12.4 0.4 3.6 55 4.0 WSW 56 67 30 36 1018.4 - 0.0
18/12:30pm 12.0 0.0 4.7 61 3.3 WSW 57 65 31 35 1018.5 - 0.0
18/12:00pm 12.2 1.2 5.1 62 3.3 WSW 52 63 28 34 1018.6 1018.8 0.0
18/11:30am 12.0 0.0 4.7 61 3.3 WSW 57 65 31 35 1018.6 - 0.0
18/11:00am 11.8 0.2 5.7 66 2.9 WSW 56 63 30 34 1018.7 - 0.0
18/10:30am 11.9 0.0 5.3 64 3.1 WSW 57 69 31 37 1018.5 - 0.0
18/10:00am 11.8 -0.1 4.5 61 3.3 WSW 56 65 30 35 1018.4 - 0.0
18/09:30am 11.4 0.1 3.2 57 3.6 WSW 52 61 28 33 1018.3 - 0.0
18/09:00am 11.0 -0.7 3.5 60 3.3 WSW 54 65 29 35 1018.0 1018.2 6.2
18/08:30am 10.5 -0.7 4.2 65 2.8 WSW 52 67 28 36 1017.9 - 6.2
18/08:00am 10.1 -1.4 4.5 68 2.5 SW 54 65 29 35 1017.6 - 6.2
18/07:30am 9.9 -2.2 4.3 68 2.5 SW 57 65 31 35 1017.3 - 6.2
18/07:00am 9.6 -2.4 4.0 68 2.5 WSW 56 67 30 36 1016.8 - 6.2
18/06:30am 9.5 -3.0 3.9 68 2.5 WSW 59 70 32 38 1016.5 - 6.2
18/06:00am 9.5 -2.6 4.1 69 2.4 WSW 57 69 31 37 1015.9 1016.0 6.2
18/05:30am 9.4 -2.7 4.2 70 2.3 WSW 57 69 31 37 1015.6 - 6.2
18/05:00am 9.2 -4.1 3.8 69 2.4 WSW 63 74 34 40 1015.0 - 6.2
18/04:30am 9.3 -3.6 4.1 70 2.3 WSW 61 72 33 39 1014.6 - 6.2
18/04:00am 9.2 -4.1 4.0 70 2.3 WSW 63 74 34 40 1014.2 - 6.2
18/03:30am 9.2 -4.8 4.4 72 2.1 WSW 67 76 36 41 1013.7 - 6.2
18/03:00am 9.0 -4.4 3.4 68 2.4 WSW 63 76 34 41 1013.6 1013.7 6.2
18/02:30am 8.9 -4.8 3.9 71 2.2 WSW 65 76 35 41 1013.7 - 6.2
18/02:00am 9.1 -5.4 4.7 74 2.0 WSW 70 83 38 45 1013.4 - 6.2
18/01:30am 8.7 -6.0 5.6 81 1.4 WSW 72 82 39 44 1013.2 - 6.2
18/01:00am 9.1 -4.7 5.3 77 1.7 WSW 67 83 36 45 1013.3 - 6.2
18/12:30am 8.5 -5.6 5.4 81 1.4 WSW 69 78 37 42 1013.0 - 6.2
18/12:00am 8.1 -7.3 5.6 84 1.1 WSW 76 89 41 48 1012.7 1012.8 6.2
 
Date/Time
EST
Temp
°C
App
Temp
°C
Dew
Point
Rel
Hum
%
Delta-T
°C
Wind Press
QNH
hPa
Press
MSL
hPa
Rain
since 9 am
mm
Dir
 
Spd
km/h
Gust
km/h
Spd
kts
Gust
kts
17/11:30pm 6.5 -8.4 4.3 86 1.0 WSW 72 91 39 49 1012.9 - 6.0
17/11:26pm 6.4 -8.1 4.4 87 0.9 WSW 70 91 38 49 1012.9 - 6.0
17/11:16pm 4.6 -14.9 1.1 78 1.4 WSW 93 113 50 61 1012.7 - 5.2
17/11:10pm 8.4 -6.0 4.2 75 1.8 WSW 69 87 37 47 1012.7 - 4.4
17/11:00pm 8.9 -6.8 4.3 73 2.0 WSW 76 91 41 49 1012.8 - 4.4
17/10:30pm 8.4 -8.0 4.6 77 1.7 W 80 100 43 54 1012.8 - 4.4
17/10:27pm 8.4 -8.4 4.6 77 1.7 W 82 100 44 54 1012.6 - 4.4
17/10:23pm 8.1 -10.1 4.1 76 1.7 W 89 100 48 54 1012.3 - 4.4
17/10:10pm 7.6 -6.9 3.8 77 1.6 W 69 102 37 55 1012.6 - 4.4
17/10:06pm 7.2 -7.0 3.3 76 1.7 W 67 111 36 60 1012.8 - 4.4
17/10:00pm 7.9 -10.4 3.8 75 1.8 W 89 111 48 60 1012.1 - 4.4
17/09:56pm 8.7 -8.2 3.9 72 2.1 W 82 107 44 58 1012.0 - 4.4
17/09:30pm 8.9 -6.9 3.5 69 2.3 W 76 91 41 49 1012.6 - 4.4
17/09:00pm 9.0 -6.3 4.4 73 2.0 WSW 74 93 40 50 1012.5 1012.6 4.4
17/08:59pm 8.8 -6.5 4.2 73 2.0 WSW 74 93 40 50 1012.5 - 4.4
17/08:30pm 9.0 -6.8 3.8 70 2.3 WSW 76 91 41 49 1012.2 - 4.4
17/08:00pm 9.4 -6.2 2.9 64 2.8 WSW 74 87 40 47 1012.4 - 4.4
17/07:30pm 9.3 -5.3 4.3 71 2.2 WSW 70 95 38 51 1012.1 - 4.4
17/07:25pm 9.5 -5.9 3.9 68 2.5 WSW 74 95 40 51 1011.7 - 4.4
17/07:00pm 9.5 -6.1 3.0 64 2.8 WSW 74 91 40 49 1011.5 - 4.4
17/06:30pm 9.1 -7.1 3.9 70 2.3 WSW 78 91 42 49 1011.0 - 4.4
17/06:00pm 9.3 -7.6 3.9 69 2.4 WSW 82 100 44 54 1010.4 1010.6 4.4
17/05:52pm 9.1 -7.9 3.3 67 2.5 WSW 82 100 44 54 1010.0 - 4.4
17/05:30pm 8.8 -10.1 2.6 65 2.6 WSW 91 104 49 56 1009.3 - 4.4
17/05:11pm 8.8 -9.5 3.4 69 2.3 WSW 89 115 48 62 1008.9 - 4.4
17/05:00pm 9.6 -9.0 3.8 67 2.6 WSW 91 106 49 57 1008.7 - 4.4
17/04:53pm 9.8 -8.8 4.0 67 2.6 WSW 91 109 49 59 1008.7 - 4.4
17/04:42pm 9.4 -11.1 3.2 65 2.7 WSW 100 109 54 59 1008.1 - 4.4
17/04:38pm 9.6 -6.4 4.8 72 2.2 W 78 96 42 52 1008.6 - 4.4
17/04:30pm 9.0 -7.4 4.6 74 2.0 W 80 95 43 51 1008.7 - 4.4
17/04:00pm 8.2 -10.7 4.2 76 1.8 W 93 132 50 71 1008.2 - 4.4
17/03:54pm 9.4 -9.6 3.8 68 2.5 W 93 132 50 71 1007.5 - 4.2
17/03:35pm 10.4 -8.5 4.3 66 2.7 WSW 93 111 50 60 1007.5 - 4.2
17/03:30pm 10.3 -9.8 5.3 71 2.3 W 100 111 54 60 1007.2 - 4.2
17/03:29pm 10.2 -10.3 4.8 69 2.4 W 102 111 55 60 1007.0 - 4.2
17/03:08pm 9.5 -7.1 5.7 77 1.7 WSW 82 100 44 54 1007.4 - 4.2
17/03:00pm 9.5 -7.0 6.2 80 1.5 WSW 82 96 44 52 1007.4 1007.5 4.2
17/02:30pm 9.3 -5.3 6.0 80 1.5 W 72 87 39 47 1007.2 - 4.2
17/02:00pm 8.5 -8.4 4.1 74 1.9 W 82 100 44 54 1007.0 - 4.2
17/01:30pm 10.5 -6.6 5.9 73 2.1 WSW 85 106 46 57 1006.7 - 4.2
17/01:11pm 11.9 -5.0 4.2 59 3.5 W 82 100 44 54 1006.4 - 4.2
17/01:00pm 12.0 -4.6 5.6 65 3.0 W 82 93 44 50 1006.6 - 4.2
17/12:32pm 11.5 -3.5 6.0 69 2.6 W 74 93 40 50 1006.6 - 4.2
17/12:30pm 11.8 -2.7 6.5 70 2.5 W 72 83 39 45 1006.9 - 4.2
17/12:00pm 11.1 -2.7 7.2 77 1.9 W 69 80 37 43 1007.6 1007.7 4.2
17/11:40am 10.7 -3.0 8.3 85 1.2 W 70 89 38 48 1007.5 - 4.2
17/11:30am 9.5 -6.7 7.4 87 1.0 W 82 98 44 53 1007.3 - 4.2
17/11:16am 8.5 -10.8 5.3 80 1.4 W 96 106 52 57 1006.8 - 4.0
17/11:14am 10.6 -2.1 6.7 77 1.8 W 63 96 34 52 1007.3 - 4.0
17/11:00am 11.8 -0.7 7.9 77 1.9 W 63 72 34 39 1007.6 - 4.0
17/10:30am 10.8 -2.3 8.2 84 1.3 W 67 80 36 43 1007.8 - 4.0
17/10:19am 10.3 -4.2 7.9 85 1.2 W 74 83 40 45 1007.6 - 4.0
17/10:17am 11.6 1.2 9.3 86 1.2 W 54 74 29 40 1007.8 - 4.0
17/10:00am 10.8 -0.1 8.9 88 0.9 W 56 63 30 34 1008.0 - 4.0
17/09:30am 10.8 -0.2 9.2 90 0.8 W 57 65 31 35 1008.3 - 4.0
17/09:02am 7.4 -4.4 4.7 83 1.2 WNW 56 93 30 50 1008.3 - 1.2
17/09:01am 10.1 -0.7 7.5 84 1.2 WNW 54 74 29 40 1008.1 - 0.4
17/09:00am 10.6 0.3 8.0 84 1.3 WNW 52 67 28 36 1008.1 1008.2 12.0
17/08:30am 10.8 -1.2 8.2 84 1.3 WNW 61 69 33 37 1008.0 - 12.0
17/08:00am 10.4 -0.7 7.8 84 1.3 W 56 69 30 37 1008.3 - 11.8
17/07:30am 10.2 -0.5 8.1 87 1.0 WNW 54 61 29 33 1008.1 - 11.8
17/07:00am 9.6 -0.8 7.9 89 0.8 WNW 52 61 28 33 1008.4 - 11.8
17/06:41am 10.4 -0.4 7.8 84 1.3 WNW 54 82 29 44 1008.1 - 11.6
17/06:30am 10.6 1.4 7.8 83 1.4 WNW 46 54 25 29 1008.5 - 11.6
17/06:00am 10.8 -0.4 7.5 80 1.6 W 56 69 30 37 1008.5 1008.6 11.6
17/05:30am 10.8 0.1 7.9 82 1.4 W 54 63 29 34 1008.5 - 11.6
17/05:00am 10.5 0.2 8.1 85 1.2 W 52 63 28 34 1008.4 - 11.6
17/04:30am 10.8 1.0 8.7 87 1.0 W 50 57 27 31 1008.5 - 11.6
17/04:00am 10.5 2.0 8.6 88 0.9 W 43 50 23 27 1008.7 - 11.6
17/03:30am 10.2 2.5 8.6 90 0.8 W 39 48 21 26 1008.9 - 11.4
17/03:00am 10.6 3.7 9.0 90 0.8 W 35 41 19 22 1009.2 1009.3 11.2
17/02:30am 10.3 2.6 8.7 90 0.8 W 39 44 21 24 1009.2 - 11.2
17/02:00am 10.2 2.9 8.8 91 0.7 W 37 43 20 23 1009.4 - 11.2
17/01:30am 10.1 2.5 8.9 92 0.6 WSW 39 44 21 24 1009.7 - 11.2
17/01:00am 10.2 2.2 9.0 92 0.6 WSW 41 48 22 26 1009.8 - 11.2
17/12:30am 10.0 3.1 8.9 93 0.5 WSW 35 43 19 23 1009.9 - 11.2
17/12:00am 10.0 3.2 9.1 94 0.4 WSW 35 39 19 21 1010.0 1010.1 11.2
 
Date/Time
EST
Temp
°C
App
Temp
°C
Dew
Point
Rel
Hum
%
Delta-T
°C
Wind Press
QNH
hPa
Press
MSL
hPa
Rain
since 9 am
mm
Dir
 
Spd
km/h
Gust
km/h
Spd
kts
Gust
kts
16/11:30pm 9.8 2.9 8.9 94 0.4 WSW 35 43 19 23 1010.0 - 11.2
16/11:00pm 10.2 3.4 9.3 94 0.5 SW 35 41 19 22 1010.2 - 11.2
16/10:30pm 10.2 4.4 9.3 94 0.5 SW 30 39 16 21 1010.2 - 11.2
16/10:00pm 10.3 3.9 9.5 95 0.4 SW 33 41 18 22 1010.1 - 11.2
16/09:30pm 10.2 3.5 9.6 96 0.3 SW 35 46 19 25 1010.0 - 11.2
16/09:00pm 10.2 4.1 9.6 96 0.3 SW 32 43 17 23 1009.5 1009.6 11.2
16/08:32pm 10.4 4.3 9.8 96 0.3 SSW 32 50 17 27 1009.1 - 11.2
16/08:30pm 10.7 5.1 10.1 96 0.3 SSW 30 44 16 24 1009.0 - 11.2
16/08:00pm 11.2 6.1 10.6 96 0.3 WSW 28 33 15 18 1008.4 - 11.2
16/07:30pm 10.4 5.5 9.8 96 0.3 SW 26 30 14 16 1008.3 - 11.2
16/07:00pm 11.8 5.5 11.2 96 0.3 W 35 41 19 22 1008.1 - 11.2
16/06:30pm 11.7 6.0 11.1 96 0.3 W 32 37 17 20 1008.0 - 11.2
16/06:00pm 11.9 6.6 11.4 97 0.3 W 30 35 16 19 1008.0 1008.1 11.2
16/05:30pm 12.2 9.9 11.7 97 0.3 NW 15 17 8 9 1008.0 - 11.0
16/05:00pm 12.1 9.8 11.6 97 0.3 W 15 19 8 10 1008.0 - 11.0
16/04:30pm 11.5 9.7 11.0 97 0.3 SE 11 20 6 11 1007.7 - 11.0
16/04:00pm 12.0 10.4 11.5 97 0.3 ESE 11 15 6 8 1007.3 - 11.0
16/03:30pm 12.1 9.8 11.6 97 0.3 SSE 15 17 8 9 1007.4 - 10.8
16/03:00pm 12.6 10.4 12.1 97 0.3 S 15 17 8 9 1007.2 1007.3 9.6
16/02:30pm 12.7 10.5 12.2 97 0.3 SE 15 19 8 10 1007.2 - 8.4
16/02:00pm 12.7 8.8 12.2 97 0.3 ESE 24 28 13 15 1007.2 - 7.6
16/01:30pm 12.7 8.4 12.2 97 0.3 ESE 26 33 14 18 1007.4 - 6.0
16/01:00pm 12.8 8.2 12.3 97 0.3 ESE 28 33 15 18 1007.7 - 5.0
16/12:30pm 12.7 8.8 12.2 97 0.3 ESE 24 28 13 15 1008.2 - 4.0
16/12:00pm 12.7 8.4 12.1 96 0.3 ESE 26 30 14 16 1008.5 1008.6 3.2
16/11:30am 12.6 8.3 12.0 96 0.3 ESE 26 28 14 15 1008.7 - 2.2
16/11:00am 12.5 7.0 11.9 96 0.3 E 32 35 17 19 1008.8 - 1.2
16/10:30am 12.9 7.5 12.3 96 0.3 E 32 35 17 19 1008.8 - 0.2
16/10:00am 12.9 7.0 12.3 96 0.3 E 35 41 19 22 1009.0 - 0.2
16/09:30am 12.8 7.4 12.2 96 0.3 E 32 35 17 19 1009.2 - 0.2
16/09:00am 12.5 6.4 11.9 96 0.3 E 35 41 19 22 1009.3 1009.4 3.6
16/08:30am 12.4 6.3 11.8 96 0.3 E 35 44 19 24 1009.5 - 3.4
16/08:00am 12.4 6.9 11.8 96 0.3 E 32 41 17 22 1009.7 - 3.0
16/07:30am 12.3 5.4 11.7 96 0.3 E 39 46 21 25 1009.3 - 3.0
16/07:00am 12.3 6.2 11.7 96 0.3 E 35 43 19 23 1009.2 - 2.4
16/06:30am 12.2 5.6 11.4 95 0.4 E 37 44 20 24 1009.4 - 2.4
16/06:00am 12.2 4.9 11.4 95 0.4 E 41 46 22 25 1009.5 1009.6 2.4
16/05:30am 12.2 6.0 11.4 95 0.4 ENE 35 43 19 23 1010.0 - 2.2
16/05:00am 12.2 5.6 11.4 95 0.4 ENE 37 46 20 25 1009.9 - 2.2
16/04:30am 12.0 4.0 11.2 95 0.4 ENE 44 52 24 28 1009.6 - 2.2
16/04:00am 11.9 3.5 11.1 95 0.4 E 46 56 25 30 1009.2 - 2.2
16/03:30am 11.8 4.7 11.0 95 0.4 E 39 48 21 26 1010.0 - 2.0
16/03:00am 11.6 4.1 10.8 95 0.4 E 41 52 22 28 - - 1.8
16/02:30am 11.6 3.7 10.7 94 0.5 ENE 43 48 23 26 1010.4 - 1.8
16/02:00am 11.8 3.7 10.9 94 0.5 ENE 44 50 24 27 1010.6 - 1.8
16/01:30am 11.7 4.9 10.6 93 0.6 ENE 37 43 20 23 1011.6 - 1.4
16/01:00am 11.5 3.5 10.4 93 0.6 ENE 43 50 23 27 1011.9 - 1.4
16/12:30am 11.5 2.2 10.4 93 0.6 ENE 50 56 27 30 1011.9 - 1.2
16/12:00am 11.6 2.3 10.5 93 0.6 ENE 50 56 27 30 1012.1 1012.2 1.2

Other Formats:

Comma delimited format used in spreadsheet applications
http://www.bom.gov.au/fwo/IDT60801/IDT60801.94949.axf

JavaScript Object Notation format (JSON) in row-major order
http://www.bom.gov.au/fwo/IDT60801/IDT60801.94949.json